sensor_id;sensor_type;location;lat;lon;timestamp;pressure;altitude;pressure_sealevel;temperature;humidity
64388;BME280;50709;52.648;4.764;2022-11-21T00:00:24;100685.41;;;12.61;55.12
64388;BME280;50709;52.648;4.764;2022-11-21T00:06:11;100697.72;;;12.50;54.87
64388;BME280;50709;52.648;4.764;2022-11-21T00:08:37;100677.75;;;12.39;53.98
64388;BME280;50709;52.648;4.764;2022-11-21T00:11:03;100690.88;;;12.36;54.43
64388;BME280;50709;52.648;4.764;2022-11-21T00:13:28;100703.97;;;12.36;55.93
64388;BME280;50709;52.648;4.764;2022-11-21T00:15:54;100684.75;;;12.36;54.34
64388;BME280;50709;52.648;4.764;2022-11-21T00:18:19;100683.00;;;12.36;54.47
64388;BME280;50709;52.648;4.764;2022-11-21T00:20:44;100696.09;;;12.33;54.73
64388;BME280;50709;52.648;4.764;2022-11-21T00:23:10;100672.69;;;12.13;55.15
64388;BME280;50709;52.648;4.764;2022-11-21T00:25:36;100694.38;;;12.29;54.66
64388;BME280;50709;52.648;4.764;2022-11-21T00:28:02;100691.78;;;12.29;55.57
64388;BME280;50709;52.648;4.764;2022-11-21T00:30:28;100695.28;;;12.26;55.50
64388;BME280;50709;52.648;4.764;2022-11-21T00:32:53;100688.38;;;12.16;54.94
64388;BME280;50709;52.648;4.764;2022-11-21T00:35:18;100677.94;;;12.11;55.54
64388;BME280;50709;52.648;4.764;2022-11-21T00:37:44;100673.59;;;12.09;54.68
64388;BME280;50709;52.648;4.764;2022-11-21T00:40:10;100674.47;;;12.06;54.47
64388;BME280;50709;52.648;4.764;2022-11-21T00:59:23;100671.94;;;11.86;55.07
64388;BME280;50709;52.648;4.764;2022-11-21T01:01:49;100671.16;;;11.72;54.70
64388;BME280;50709;52.648;4.764;2022-11-21T01:04:14;100658.09;;;11.66;55.82
64388;BME280;50709;52.648;4.764;2022-11-21T01:06:40;100672.09;;;11.66;55.38
64388;BME280;50709;52.648;4.764;2022-11-21T01:09:05;100674.63;;;11.75;55.13
64388;BME280;50709;52.648;4.764;2022-11-21T01:11:31;100680.72;;;11.79;55.84
64388;BME280;50709;52.648;4.764;2022-11-21T01:13:57;100663.28;;;11.75;56.12
64388;BME280;50709;52.648;4.764;2022-11-21T01:16:24;100651.94;;;11.77;55.49
64388;BME280;50709;52.648;4.764;2022-11-21T01:18:51;100614.56;;;11.58;55.74
64388;BME280;50709;52.648;4.764;2022-11-21T01:21:22;100645.91;;;11.65;53.92
64388;BME280;50709;52.648;4.764;2022-11-21T01:23:48;100649.44;;;11.59;54.48
64388;BME280;50709;52.648;4.764;2022-11-21T01:26:22;100655.53;;;11.58;55.42
64388;BME280;50709;52.648;4.764;2022-11-21T01:28:48;100637.28;;;11.45;55.08
64388;BME280;50709;52.648;4.764;2022-11-21T01:31:18;100645.97;;;11.52;55.82
64388;BME280;50709;52.648;4.764;2022-11-21T01:33:44;100634.69;;;11.49;55.35
64388;BME280;50709;52.648;4.764;2022-11-21T01:36:14;100652.94;;;11.53;55.63
64388;BME280;50709;52.648;4.764;2022-11-21T01:38:43;100641.63;;;11.53;57.06
64388;BME280;50709;52.648;4.764;2022-11-21T01:41:10;100638.13;;;11.57;55.79
64388;BME280;50709;52.648;4.764;2022-11-21T01:43:36;100632.06;;;11.49;56.21
64388;BME280;50709;52.648;4.764;2022-11-21T01:48:54;100635.56;;;11.40;55.14
64388;BME280;50709;52.648;4.764;2022-11-21T01:51:42;100646.91;;;11.39;55.47
64388;BME280;50709;52.648;4.764;2022-11-21T01:57:02;100629.50;;;11.32;55.81
64388;BME280;50709;52.648;4.764;2022-11-21T02:02:21;100663.31;;;11.67;57.43
64388;BME280;50709;52.648;4.764;2022-11-21T02:04:48;100662.44;;;11.74;57.98
64388;BME280;50709;52.648;4.764;2022-11-21T02:07:18;100663.28;;;11.76;57.34
64388;BME280;50709;52.648;4.764;2022-11-21T02:09:48;100651.91;;;11.82;57.83
64388;BME280;50709;52.648;4.764;2022-11-21T02:12:22;100664.94;;;11.91;57.32
64388;BME280;50709;52.648;4.764;2022-11-21T02:14:47;100638.81;;;11.82;57.71
64388;BME280;50709;52.648;4.764;2022-11-21T02:17:13;100658.00;;;11.84;57.25
64388;BME280;50709;52.648;4.764;2022-11-21T02:22:24;100671.09;;;11.86;58.17
64388;BME280;50709;52.648;4.764;2022-11-21T02:25:02;100657.16;;;11.79;57.17
64388;BME280;50709;52.648;4.764;2022-11-21T02:27:28;100646.72;;;11.71;57.49
64388;BME280;50709;52.648;4.764;2022-11-21T02:29:53;100655.47;;;11.67;56.66
64388;BME280;50709;52.648;4.764;2022-11-21T02:32:21;100641.59;;;11.62;57.26
64388;BME280;50709;52.648;4.764;2022-11-21T02:34:47;100640.72;;;11.60;57.11
64388;BME280;50709;52.648;4.764;2022-11-21T02:37:12;100627.69;;;11.49;57.83
64388;BME280;50709;52.648;4.764;2022-11-21T02:39:38;100618.16;;;11.42;57.00
64388;BME280;50709;52.648;4.764;2022-11-21T02:42:11;100622.50;;;11.44;57.34
64388;BME280;50709;52.648;4.764;2022-11-21T02:44:48;100612.97;;;11.31;56.93
64388;BME280;50709;52.648;4.764;2022-11-21T02:47:18;100613.84;;;11.30;57.43
64388;BME280;50709;52.648;4.764;2022-11-21T02:52:26;100601.63;;;11.29;56.67
64388;BME280;50709;52.648;4.764;2022-11-21T02:54:52;100592.09;;;11.22;56.85
64388;BME280;50709;52.648;4.764;2022-11-21T02:57:17;100592.97;;;11.18;56.80
64388;BME280;50709;52.648;4.764;2022-11-21T02:59:42;100604.28;;;11.20;56.89
64388;BME280;50709;52.648;4.764;2022-11-21T03:02:08;100599.03;;;11.21;57.70
64388;BME280;50709;52.648;4.764;2022-11-21T03:04:33;100586.03;;;11.12;56.04
64388;BME280;50709;52.648;4.764;2022-11-21T03:06:59;100586.03;;;11.12;55.65
64388;BME280;50709;52.648;4.764;2022-11-21T03:09:24;100577.34;;;11.01;57.53
64388;BME280;50709;52.648;4.764;2022-11-21T03:11:49;100592.13;;;11.14;58.55
64388;BME280;50709;52.648;4.764;2022-11-21T03:14:15;100579.94;;;11.16;58.37
64388;BME280;50709;52.648;4.764;2022-11-21T03:16:40;100587.75;;;11.18;57.90
64388;BME280;50709;52.648;4.764;2022-11-21T03:19:05;100581.63;;;11.19;57.35
64388;BME280;50709;52.648;4.764;2022-11-21T03:21:31;100575.56;;;11.10;57.18
64388;BME280;50709;52.648;4.764;2022-11-21T03:23:56;100579.94;;;11.11;58.16
64388;BME280;50709;52.648;4.764;2022-11-21T03:26:21;100534.69;;;11.00;58.32
64388;BME280;50709;52.648;4.764;2022-11-21T03:28:47;100574.59;;;11.32;58.53
64388;BME280;50709;52.648;4.764;2022-11-21T03:31:12;100578.97;;;11.34;58.95
64388;BME280;50709;52.648;4.764;2022-11-21T03:33:37;100585.06;;;11.33;57.83
64388;BME280;50709;52.648;4.764;2022-11-21T03:36:03;100572.91;;;11.20;56.93
64388;BME280;50709;52.648;4.764;2022-11-21T03:38:28;100566.00;;;11.09;58.00
64388;BME280;50709;52.648;4.764;2022-11-21T03:40:53;100574.75;;;11.07;58.13
64388;BME280;50709;52.648;4.764;2022-11-21T03:43:19;100581.69;;;11.11;58.59
64388;BME280;50709;52.648;4.764;2022-11-21T03:45:45;100573.84;;;11.13;58.72
64388;BME280;50709;52.648;4.764;2022-11-21T03:48:12;100577.31;;;11.16;57.78
64388;BME280;50709;52.648;4.764;2022-11-21T03:50:41;100575.59;;;11.06;57.80
64388;BME280;50709;52.648;4.764;2022-11-21T03:53:06;100546.94;;;10.80;57.71
64388;BME280;50709;52.648;4.764;2022-11-21T03:55:32;100545.19;;;10.85;57.36
64388;BME280;50709;52.648;4.764;2022-11-21T03:57:57;100581.72;;;10.97;58.27
64388;BME280;50709;52.648;4.764;2022-11-21T04:00:22;100564.31;;;10.98;58.36
64388;BME280;50709;52.648;4.764;2022-11-21T04:02:48;100559.06;;;11.01;57.85
64388;BME280;50709;52.648;4.764;2022-11-21T04:05:13;100551.28;;;10.94;58.05
64388;BME280;50709;52.648;4.764;2022-11-21T04:07:39;100552.97;;;10.96;57.86
64388;BME280;50709;52.648;4.764;2022-11-21T04:10:04;100553.94;;;10.84;57.78
64388;BME280;50709;52.648;4.764;2022-11-21T04:12:30;100568.69;;;10.86;58.73
64388;BME280;50709;52.648;4.764;2022-11-21T04:14:55;100564.41;;;10.76;57.26
64388;BME280;50709;52.648;4.764;2022-11-21T04:17:20;100580.94;;;10.73;58.43
64388;BME280;50709;52.648;4.764;2022-11-21T04:19:45;100582.69;;;10.76;58.35
64388;BME280;50709;52.648;4.764;2022-11-21T04:22:11;100565.25;;;10.76;57.69
64388;BME280;50709;52.648;4.764;2022-11-21T04:24:36;100560.91;;;10.72;57.80
64388;BME280;50709;52.648;4.764;2022-11-21T04:27:01;100548.75;;;10.65;58.31
64388;BME280;50709;52.648;4.764;2022-11-21T04:29:27;100560.06;;;10.64;57.89
64388;BME280;50709;52.648;4.764;2022-11-21T04:31:52;100551.41;;;10.54;58.27
64388;BME280;50709;52.648;4.764;2022-11-21T04:34:17;100549.63;;;10.55;58.54
64388;BME280;50709;52.648;4.764;2022-11-21T04:36:43;100547.91;;;10.54;57.57
64388;BME280;50709;52.648;4.764;2022-11-21T04:39:08;100555.72;;;10.54;57.45
64388;BME280;50709;52.648;4.764;2022-11-21T04:41:34;100540.09;;;10.48;58.23
64388;BME280;50709;52.648;4.764;2022-11-21T04:43:59;100549.66;;;10.47;56.80
64388;BME280;50709;52.648;4.764;2022-11-21T04:46:24;100536.63;;;10.41;56.60
64388;BME280;50709;52.648;4.764;2022-11-21T04:48:50;100532.28;;;10.40;56.22
64388;BME280;50709;52.648;4.764;2022-11-21T04:51:15;100529.69;;;10.35;56.43
64388;BME280;50709;52.648;4.764;2022-11-21T04:53:40;100534.91;;;10.37;56.66
64388;BME280;50709;52.648;4.764;2022-11-21T04:56:06;100515.75;;;10.19;56.52
64388;BME280;50709;52.648;4.764;2022-11-21T04:58:31;100527.03;;;10.27;56.69
64388;BME280;50709;52.648;4.764;2022-11-21T05:00:56;100530.50;;;10.30;56.87
64388;BME280;50709;52.648;4.764;2022-11-21T05:03:22;100519.22;;;10.26;56.76
64388;BME280;50709;52.648;4.764;2022-11-21T05:05:47;100492.25;;;10.15;57.61
64388;BME280;50709;52.648;4.764;2022-11-21T05:08:13;100514.88;;;10.31;57.26
64388;BME280;50709;52.648;4.764;2022-11-21T05:10:38;100500.09;;;10.19;56.22
64388;BME280;50709;52.648;4.764;2022-11-21T05:13:23;100509.66;;;10.16;56.59
64388;BME280;50709;52.648;4.764;2022-11-21T05:15:54;100506.19;;;10.07;56.46
64388;BME280;50709;52.648;4.764;2022-11-21T05:18:20;100511.41;;;10.09;57.09
64388;BME280;50709;52.648;4.764;2022-11-21T05:20:45;100487.94;;;10.06;57.08
64388;BME280;50709;52.648;4.764;2022-11-21T05:23:10;100496.63;;;10.03;56.67
64388;BME280;50709;52.648;4.764;2022-11-21T05:25:36;100494.03;;;9.97;56.43
64388;BME280;50709;52.648;4.764;2022-11-21T05:28:01;100501.84;;;10.02;56.51
64388;BME280;50709;52.648;4.764;2022-11-21T05:30:26;100475.75;;;9.88;58.63
64388;BME280;50709;52.648;4.764;2022-11-21T05:32:52;100501.84;;;10.09;57.43
64388;BME280;50709;52.648;4.764;2022-11-21T05:35:17;100493.16;;;10.14;57.24
64388;BME280;50709;52.648;4.764;2022-11-21T05:37:42;100475.75;;;10.03;57.10
64388;BME280;50709;52.648;4.764;2022-11-21T05:40:08;100487.06;;;10.08;58.31
64388;BME280;50709;52.648;4.764;2022-11-21T05:42:38;100487.91;;;10.20;57.64
64388;BME280;50709;52.648;4.764;2022-11-21T05:45:21;100500.94;;;10.20;58.98
64388;BME280;50709;52.648;4.764;2022-11-21T05:47:47;100503.56;;;10.21;59.23
64388;BME280;50709;52.648;4.764;2022-11-21T05:50:12;100487.00;;;10.27;59.00
64388;BME280;50709;52.648;4.764;2022-11-21T05:52:37;100496.59;;;10.33;58.78
64388;BME280;50709;52.648;4.764;2022-11-21T05:55:03;100488.75;;;10.33;59.07
64388;BME280;50709;52.648;4.764;2022-11-21T05:57:29;100476.59;;;10.22;58.10
64388;BME280;50709;52.648;4.764;2022-11-21T05:59:55;100477.47;;;10.21;57.98
64388;BME280;50709;52.648;4.764;2022-11-21T06:02:20;100477.47;;;10.18;57.86
64388;BME280;50709;52.648;4.764;2022-11-21T06:05:04;100464.44;;;10.14;58.43
64388;BME280;50709;52.648;4.764;2022-11-21T06:07:30;100454.88;;;10.05;57.96
64388;BME280;50709;52.648;4.764;2022-11-21T06:09:56;100453.13;;;10.05;57.48
64388;BME280;50709;52.648;4.764;2022-11-21T06:12:22;100445.31;;;10.08;57.47
64388;BME280;50709;52.648;4.764;2022-11-21T06:14:47;100460.03;;;10.33;59.15
64388;BME280;50709;52.648;4.764;2022-11-21T06:17:12;100461.69;;;10.65;60.42
64388;BME280;50709;52.648;4.764;2022-11-21T06:19:38;100445.84;;;11.00;59.76
64388;BME280;50709;52.648;4.764;2022-11-21T06:22:03;100456.09;;;11.33;57.87
64388;BME280;50709;52.648;4.764;2022-11-21T06:24:28;100455.13;;;11.46;58.18
64388;BME280;50709;52.648;4.764;2022-11-21T06:26:54;100447.94;;;11.68;59.11
64388;BME280;50709;52.648;4.764;2022-11-21T06:29:19;100449.47;;;11.97;57.41
64388;BME280;50709;52.648;4.764;2022-11-21T06:31:46;100449.28;;;12.16;57.35
64388;BME280;50709;52.648;4.764;2022-11-21T06:34:11;100439.75;;;12.82;58.99
64388;BME280;50709;52.648;4.764;2022-11-21T06:36:37;100440.41;;;13.57;61.72
64388;BME280;50709;52.648;4.764;2022-11-21T06:39:02;100435.97;;;14.10;57.77
64388;BME280;50709;52.648;4.764;2022-11-21T06:41:28;100424.00;;;14.39;59.61
64388;BME280;50709;52.648;4.764;2022-11-21T06:43:59;100418.34;;;14.59;57.30
64388;BME280;50709;52.648;4.764;2022-11-21T06:46:27;100408.22;;;14.85;57.14
64388;BME280;50709;52.648;4.764;2022-11-21T06:48:53;100412.53;;;14.86;58.65
64388;BME280;50709;52.648;4.764;2022-11-21T06:51:23;100405.78;;;14.75;56.66
64388;BME280;50709;52.648;4.764;2022-11-21T06:53:56;100397.88;;;14.75;58.39
64388;BME280;50709;52.648;4.764;2022-11-21T06:56:28;100413.13;;;14.58;56.67
64388;BME280;50709;52.648;4.764;2022-11-21T06:58:54;100385.41;;;14.41;60.14
64388;BME280;50709;52.648;4.764;2022-11-21T07:01:20;100418.78;;;14.38;58.96
64388;BME280;50709;52.648;4.764;2022-11-21T07:03:45;100420.97;;;14.16;57.30
64388;BME280;50709;52.648;4.764;2022-11-21T07:06:11;100427.41;;;13.99;57.40
64388;BME280;50709;52.648;4.764;2022-11-21T07:08:38;100431.47;;;14.16;60.82
64388;BME280;50709;52.648;4.764;2022-11-21T07:11:10;100424.59;;;14.10;58.40
64388;BME280;50709;52.648;4.764;2022-11-21T07:13:36;100410.00;;;13.95;58.76
64388;BME280;50709;52.648;4.764;2022-11-21T07:16:07;100416.31;;;13.83;58.20
64388;BME280;50709;52.648;4.764;2022-11-21T07:18:33;100414.91;;;13.65;59.00
64388;BME280;50709;52.648;4.764;2022-11-21T07:21:00;100414.06;;;13.61;58.66
64388;BME280;50709;52.648;4.764;2022-11-21T07:23:27;100411.78;;;13.41;58.36
64388;BME280;50709;52.648;4.764;2022-11-21T07:25:52;100405.09;;;13.22;59.20
64388;BME280;50709;52.648;4.764;2022-11-21T07:28:18;100403.31;;;13.22;59.75
64388;BME280;50709;52.648;4.764;2022-11-21T07:30:43;100392.94;;;13.16;60.55
64388;BME280;50709;52.648;4.764;2022-11-21T07:33:09;100396.47;;;13.13;59.88
64388;BME280;50709;52.648;4.764;2022-11-21T07:35:35;100395.75;;;13.05;59.33
64388;BME280;50709;52.648;4.764;2022-11-21T07:38:02;100397.44;;;13.09;58.34
64388;BME280;50709;52.648;4.764;2022-11-21T07:40:28;100389.69;;;13.00;60.53
64388;BME280;50709;52.648;4.764;2022-11-21T07:42:59;100349.19;;;12.62;59.20
64388;BME280;50709;52.648;4.764;2022-11-21T07:45:24;100375.16;;;12.79;60.19
64388;BME280;50709;52.648;4.764;2022-11-21T07:47:56;100385.72;;;12.74;60.06
64388;BME280;50709;52.648;4.764;2022-11-21T07:50:22;100386.56;;;12.75;58.89
64388;BME280;50709;52.648;4.764;2022-11-21T07:52:47;100370.97;;;12.66;58.84
64388;BME280;50709;52.648;4.764;2022-11-21T07:55:12;100384.09;;;12.64;58.89
64388;BME280;50709;52.648;4.764;2022-11-21T07:57:38;100345.09;;;12.42;59.13
64388;BME280;50709;52.648;4.764;2022-11-21T08:00:04;100373.69;;;12.59;59.01
64388;BME280;50709;52.648;4.764;2022-11-21T08:02:29;100365.81;;;12.61;59.64
64388;BME280;50709;52.648;4.764;2022-11-21T08:04:54;100379.66;;;12.69;59.49
64388;BME280;50709;52.648;4.764;2022-11-21T08:07:21;100374.53;;;12.60;59.31
64388;BME280;50709;52.648;4.764;2022-11-21T08:09:47;100363.34;;;12.49;58.47
64388;BME280;50709;52.648;4.764;2022-11-21T08:12:13;100362.44;;;12.51;60.24
64388;BME280;50709;52.648;4.764;2022-11-21T08:14:39;100366.91;;;12.44;59.21
64388;BME280;50709;52.648;4.764;2022-11-21T08:17:04;100370.31;;;12.50;59.92
64388;BME280;50709;52.648;4.764;2022-11-21T08:19:30;100369.41;;;12.54;59.70
64388;BME280;50709;52.648;4.764;2022-11-21T08:21:55;100362.38;;;12.56;60.03
64388;BME280;50709;52.648;4.764;2022-11-21T08:24:23;100378.06;;;12.57;59.90
64388;BME280;50709;52.648;4.764;2022-11-21T08:26:49;100321.75;;;12.27;59.52
64388;BME280;50709;52.648;4.764;2022-11-21T08:29:15;100370.31;;;12.48;59.56
64388;BME280;50709;52.648;4.764;2022-11-21T08:31:41;100356.44;;;12.41;59.57
64388;BME280;50709;52.648;4.764;2022-11-21T08:34:07;100356.44;;;12.44;60.30
64388;BME280;50709;52.648;4.764;2022-11-21T08:36:32;100357.25;;;12.47;59.36
64388;BME280;50709;52.648;4.764;2022-11-21T08:38:58;100348.63;;;12.40;59.15
64388;BME280;50709;52.648;4.764;2022-11-21T08:41:23;100339.13;;;12.33;59.96
64388;BME280;50709;52.648;4.764;2022-11-21T08:44:07;100328.69;;;12.28;59.57
64388;BME280;50709;52.648;4.764;2022-11-21T08:46:33;100320.84;;;12.30;59.84
64388;BME280;50709;52.648;4.764;2022-11-21T08:49:05;100316.50;;;12.27;60.82
64388;BME280;50709;52.648;4.764;2022-11-21T08:51:30;100311.28;;;12.27;60.77
64388;BME280;50709;52.648;4.764;2022-11-21T08:53:56;100303.41;;;12.27;59.70
64388;BME280;50709;52.648;4.764;2022-11-21T08:56:21;100271.44;;;12.03;59.74
64388;BME280;50709;52.648;4.764;2022-11-21T08:58:46;100318.34;;;12.17;60.51
64388;BME280;50709;52.648;4.764;2022-11-21T09:01:12;100311.28;;;12.27;60.94
64388;BME280;50709;52.648;4.764;2022-11-21T09:03:37;100292.13;;;12.22;60.33
64388;BME280;50709;52.648;4.764;2022-11-21T09:06:02;100301.59;;;12.31;60.73
64388;BME280;50709;52.648;4.764;2022-11-21T09:08:28;100293.03;;;12.19;60.42
64388;BME280;50709;52.648;4.764;2022-11-21T09:10:54;100288.78;;;12.12;60.33
64388;BME280;50709;52.648;4.764;2022-11-21T09:13:19;100291.41;;;12.09;61.45
64388;BME280;50709;52.648;4.764;2022-11-21T09:15:45;100285.31;;;12.08;60.51
64388;BME280;50709;52.648;4.764;2022-11-21T09:18:29;100273.22;;;11.98;59.82
64388;BME280;50709;52.648;4.764;2022-11-21T09:20:54;100268.00;;;11.98;61.60
64388;BME280;50709;52.648;4.764;2022-11-21T09:23:19;100268.81;;;12.03;60.04
64388;BME280;50709;52.648;4.764;2022-11-21T09:25:44;100254.09;;;11.96;60.64
64388;BME280;50709;52.648;4.764;2022-11-21T09:28:11;100266.13;;;12.09;60.92
64388;BME280;50709;52.648;4.764;2022-11-21T09:30:37;100240.97;;;11.93;60.94
64388;BME280;50709;52.648;4.764;2022-11-21T09:33:05;100231.38;;;11.97;60.43
64388;BME280;50709;52.648;4.764;2022-11-21T09:35:31;100260.00;;;12.12;60.65
64388;BME280;50709;52.648;4.764;2022-11-21T09:37:57;100251.34;;;12.04;60.68
64388;BME280;50709;52.648;4.764;2022-11-21T09:40:22;100240.06;;;12.00;60.18
64388;BME280;50709;52.648;4.764;2022-11-21T09:43:16;100244.50;;;11.95;60.47
64388;BME280;50709;52.648;4.764;2022-11-21T09:45:47;100227.19;;;11.82;60.18
64388;BME280;50709;52.648;4.764;2022-11-21T09:48:19;100230.56;;;11.94;61.51
64388;BME280;50709;52.648;4.764;2022-11-21T09:50:51;100234.78;;;12.03;61.21
64388;BME280;50709;52.648;4.764;2022-11-21T09:56:16;100234.00;;;11.97;60.95
64388;BME280;50709;52.648;4.764;2022-11-21T10:01:19;100231.22;;;12.09;60.73
64388;BME280;50709;52.648;4.764;2022-11-21T10:03:46;100225.09;;;12.10;62.07
64388;BME280;50709;52.648;4.764;2022-11-21T10:06:18;100234.59;;;12.17;61.40
64388;BME280;50709;52.648;4.764;2022-11-21T10:11:56;100219.97;;;12.02;61.01
64388;BME280;50709;52.648;4.764;2022-11-21T10:20:21;100218.06;;;12.15;60.89
64388;BME280;50709;52.648;4.764;2022-11-21T10:23:23;100207.50;;;12.20;61.04
64388;BME280;50709;52.648;4.764;2022-11-21T10:25:55;100206.56;;;12.24;62.55
64388;BME280;50709;52.648;4.764;2022-11-21T10:28:50;100195.16;;;12.28;61.59
64388;BME280;50709;52.648;4.764;2022-11-21T10:31:17;100201.34;;;12.25;60.63
64388;BME280;50709;52.648;4.764;2022-11-21T10:33:44;100196.88;;;12.31;61.02
64388;BME280;50709;52.648;4.764;2022-11-21T10:38:47;100156.13;;;12.13;60.88
64388;BME280;50709;52.648;4.764;2022-11-21T10:41:22;100184.66;;;12.31;61.67
64388;BME280;50709;52.648;4.764;2022-11-21T10:43:55;100161.25;;;12.22;61.09
64388;BME280;50709;52.648;4.764;2022-11-21T10:46:58;100181.91;;;12.39;61.10
64388;BME280;50709;52.648;4.764;2022-11-21T10:49:27;100173.22;;;12.37;60.98
64388;BME280;50709;52.648;4.764;2022-11-21T10:54:28;100158.25;;;12.45;62.61
64388;BME280;50709;52.648;4.764;2022-11-21T10:57:09;100153.00;;;12.45;61.11
64388;BME280;50709;52.648;4.764;2022-11-21T10:59:37;100130.66;;;12.25;61.95
64388;BME280;50709;52.648;4.764;2022-11-21T11:02:22;100162.66;;;12.41;62.28
64388;BME280;50709;52.648;4.764;2022-11-21T11:04:47;100147.03;;;12.37;61.54
64388;BME280;50709;52.648;4.764;2022-11-21T11:07:20;100148.63;;;12.45;61.80
64388;BME280;50709;52.648;4.764;2022-11-21T11:09:46;100127.06;;;12.31;61.83
64388;BME280;50709;52.648;4.764;2022-11-21T11:12:25;100124.59;;;12.22;62.12
64388;BME280;50709;52.648;4.764;2022-11-21T11:15:16;100120.13;;;12.28;61.16
64388;BME280;50709;52.648;4.764;2022-11-21T11:17:48;100122.78;;;12.24;61.92
64388;BME280;50709;52.648;4.764;2022-11-21T11:20:32;100132.09;;;12.43;62.48
64388;BME280;50709;52.648;4.764;2022-11-21T11:22:57;100132.88;;;12.49;61.94
64388;BME280;50709;52.648;4.764;2022-11-21T11:25:23;100115.53;;;12.41;61.85
64388;BME280;50709;52.648;4.764;2022-11-21T11:27:48;100129.31;;;12.53;63.11
64388;BME280;50709;52.648;4.764;2022-11-21T11:30:15;100112.94;;;12.40;62.85
64388;BME280;50709;52.648;4.764;2022-11-21T11:32:41;100080.94;;;12.22;62.24
64388;BME280;50709;52.648;4.764;2022-11-21T11:37:42;100106.06;;;12.34;62.19
64388;BME280;50709;52.648;4.764;2022-11-21T11:40:38;100099.97;;;12.32;62.41
64388;BME280;50709;52.648;4.764;2022-11-21T11:49:45;100069.41;;;12.34;62.30
64388;BME280;50709;52.648;4.764;2022-11-21T11:52:36;100067.63;;;12.35;61.74
64388;BME280;50709;52.648;4.764;2022-11-21T11:55:14;100063.28;;;12.35;62.49
64388;BME280;50709;52.648;4.764;2022-11-21T11:57:41;100051.06;;;12.34;62.83
64388;BME280;50709;52.648;4.764;2022-11-21T12:03:10;100047.44;;;12.41;62.47
64388;BME280;50709;52.648;4.764;2022-11-21T12:05:45;100017.22;;;12.23;62.37
64388;BME280;50709;52.648;4.764;2022-11-21T12:08:18;100029.09;;;12.41;62.56
64388;BME280;50709;52.648;4.764;2022-11-21T12:10:58;100015.09;;;12.44;61.98
64388;BME280;50709;52.648;4.764;2022-11-21T12:13:51;100015.00;;;12.50;61.78
64388;BME280;50709;52.648;4.764;2022-11-21T12:16:17;100021.75;;;12.62;61.89
64388;BME280;50709;52.648;4.764;2022-11-21T12:21:17;100007.84;;;12.58;62.24
64388;BME280;50709;52.648;4.764;2022-11-21T12:23:54;99994.78;;;12.57;62.55
64388;BME280;50709;52.648;4.764;2022-11-21T12:31:57;99999.94;;;12.60;62.74
64388;BME280;50709;52.648;4.764;2022-11-21T12:34:53;99994.81;;;12.55;62.20
64388;BME280;50709;52.648;4.764;2022-11-21T12:40:33;99941.00;;;12.40;62.21
64388;BME280;50709;52.648;4.764;2022-11-21T12:43:09;99968.22;;;12.75;62.52
64388;BME280;50709;52.648;4.764;2022-11-21T12:45:41;99966.38;;;12.79;62.20
64388;BME280;50709;52.648;4.764;2022-11-21T12:54:22;99942.19;;;12.68;61.87
64388;BME280;50709;52.648;4.764;2022-11-21T13:04:54;99909.13;;;12.62;62.41
64388;BME280;50709;52.648;4.764;2022-11-21T13:07:22;99920.25;;;12.72;62.27
64388;BME280;50709;52.648;4.764;2022-11-21T13:09:52;99911.41;;;12.77;62.23
64388;BME280;50709;52.648;4.764;2022-11-21T13:12:28;99900.03;;;12.78;62.01
64388;BME280;50709;52.648;4.764;2022-11-21T13:17:45;99884.22;;;12.82;62.96
64388;BME280;50709;52.648;4.764;2022-11-21T13:30:48;99862.22;;;12.89;61.93
64388;BME280;50709;52.648;4.764;2022-11-21T13:49:42;99815.28;;;12.79;61.71
64388;BME280;50709;52.648;4.764;2022-11-21T14:06:26;99769.25;;;12.69;62.07
64388;BME280;50709;52.648;4.764;2022-11-21T14:09:16;99782.09;;;12.80;61.97
64388;BME280;50709;52.648;4.764;2022-11-21T14:11:48;99771.72;;;12.75;62.25
64388;BME280;50709;52.648;4.764;2022-11-21T14:14:53;99781.22;;;12.79;62.54
64388;BME280;50709;52.648;4.764;2022-11-21T14:17:49;99771.75;;;12.74;62.04
64388;BME280;50709;52.648;4.764;2022-11-21T14:22:45;99745.00;;;12.61;62.21
64388;BME280;50709;52.648;4.764;2022-11-21T14:25:16;99723.50;;;12.47;62.32
64388;BME280;50709;52.648;4.764;2022-11-21T14:27:47;99752.66;;;12.69;62.12
64388;BME280;50709;52.648;4.764;2022-11-21T14:30:26;99750.81;;;12.72;61.97
64388;BME280;50709;52.648;4.764;2022-11-21T14:32:52;99749.13;;;12.70;61.86
64388;BME280;50709;52.648;4.764;2022-11-21T14:35:20;99755.16;;;12.73;62.02
64388;BME280;50709;52.648;4.764;2022-11-21T14:37:46;99756.03;;;12.74;62.38
64388;BME280;50709;52.648;4.764;2022-11-21T14:40:14;99753.25;;;12.80;62.04
64388;BME280;50709;52.648;4.764;2022-11-21T14:42:43;99739.31;;;12.79;62.19
64388;BME280;50709;52.648;4.764;2022-11-21T14:45:20;99733.94;;;12.84;61.99
64388;BME280;50709;52.648;4.764;2022-11-21T14:47:50;99740.97;;;12.84;61.92
64388;BME280;50709;52.648;4.764;2022-11-21T14:50:23;99722.66;;;12.81;62.30
64388;BME280;50709;52.648;4.764;2022-11-21T14:52:49;99713.16;;;12.76;62.26
64388;BME280;50709;52.648;4.764;2022-11-21T14:55:29;99715.66;;;12.83;61.88
64388;BME280;50709;52.648;4.764;2022-11-21T14:57:57;99697.41;;;12.78;61.99
64388;BME280;50709;52.648;4.764;2022-11-21T15:00:27;99723.41;;;12.86;62.17
64388;BME280;50709;52.648;4.764;2022-11-21T15:02:56;99709.66;;;12.77;62.20
64388;BME280;50709;52.648;4.764;2022-11-21T15:05:29;99677.69;;;12.65;62.13
64388;BME280;50709;52.648;4.764;2022-11-21T15:07:54;99681.94;;;12.67;62.17
64388;BME280;50709;52.648;4.764;2022-11-21T15:10:22;99706.38;;;12.69;61.98
64388;BME280;50709;52.648;4.764;2022-11-21T15:12:58;99708.00;;;12.73;62.53
64388;BME280;50709;52.648;4.764;2022-11-21T15:15:34;99704.50;;;12.74;61.73